Time;durP1;ratioP1;P1;durP2;ratioP2;P2;SDS_P1;SDS_P2;PMS_P1;PMS_P2;Temp;Humidity;BMP_temperature;BMP_pressure;BME280_temperature;BME280_humidity;BME280_pressure;Samples;Min_cycle;Max_cycle;Signal;HPM_P1;HPM_P2
2020/12/19 00:01:05;;;;;;;7.25;4.53;;;6.90;99.90;;;6.66;100.00;101308.31;4827798;29;20048;-91
2020/12/19 00:03:31;;;;;;;6.78;4.70;;;6.90;99.90;;;6.68;100.00;101311.72;4841970;29;20033;-89
2020/12/19 00:06:03;;;;;;;8.00;5.47;;;6.90;99.90;;;6.63;100.00;101303.25;4852401;29;20033;-89
2020/12/19 00:08:29;;;;;;;9.52;5.57;;;6.90;99.90;;;6.64;100.00;101304.13;4853324;29;20135;-90
2020/12/19 00:10:55;;;;;;;7.50;5.15;;;6.80;99.90;;;6.65;100.00;101305.81;4860911;29;20045;-91
2020/12/19 00:13:26;;;;;;;6.72;4.70;;;7.30;99.90;;;6.62;100.00;101300.72;4866972;29;20020;-92
2020/12/19 00:16:54;;;;;;;7.45;5.07;;;6.60;99.90;;;6.62;100.00;101296.16;4865744;29;20033;-90
2020/12/19 00:19:23;;;;;;;8.82;5.32;;;6.80;99.90;;;6.55;100.00;101295.09;4879305;29;20041;-91
2020/12/19 00:21:50;;;;;;;7.78;5.70;;;6.70;99.90;;;6.47;100.00;101297.78;4878007;29;20035;-91
2020/12/19 00:24:16;;;;;;;8.98;5.32;;;6.60;99.90;;;6.38;100.00;101287.94;4862843;29;20037;-89
2020/12/19 00:26:43;;;;;;;8.40;4.82;;;6.70;99.90;;;6.35;100.00;101294.50;4864127;29;20032;-92
2020/12/19 00:29:12;;;;;;;8.98;5.78;;;6.80;99.90;;;6.44;100.00;101287.28;4859819;29;20030;-92
2020/12/19 00:31:40;;;;;;;7.28;5.15;;;6.10;99.90;;;6.40;100.00;101285.94;4848715;29;20026;-93
2020/12/19 00:34:08;;;;;;;7.90;4.72;;;6.60;99.90;;;6.41;100.00;101288.47;4864118;29;20050;-92
2020/12/19 00:36:35;;;;;;;10.98;7.30;;;6.60;99.90;;;6.42;100.00;101298.28;4839070;29;20018;-90
2020/12/19 00:39:05;;;;;;;10.65;6.60;;;6.80;99.90;;;6.42;100.00;101284.75;4854798;29;20516;-90
2020/12/19 00:41:31;;;;;;;8.23;5.72;;;6.60;99.90;;;6.45;100.00;101283.56;4857432;29;20044;-91
2020/12/19 00:44:00;;;;;;;8.68;5.72;;;7.10;99.90;;;6.47;100.00;101279.69;4870562;29;20037;-91
2020/12/19 00:46:26;;;;;;;9.57;6.25;;;6.90;99.90;;;6.40;100.00;101275.13;4857931;29;20021;-92
2020/12/19 00:48:53;;;;;;;8.18;6.30;;;6.90;99.90;;;6.41;100.00;101282.22;4847958;29;20041;-92
2020/12/19 00:51:25;;;;;;;9.07;5.72;;;6.60;99.90;;;6.36;100.00;101276.44;4843048;29;20033;-91
2020/12/19 00:53:51;;;;;;;8.57;6.50;;;6.80;99.90;;;6.41;100.00;101272.25;4855655;29;20469;-92
2020/12/19 00:56:29;;;;;;;10.20;6.43;;;6.50;99.90;;;6.34;100.00;101273.88;4841168;29;20041;-91
2020/12/19 00:58:56;;;;;;;10.63;7.38;;;6.60;99.90;;;6.34;100.00;101275.75;4864602;29;20041;-90
2020/12/19 01:01:25;;;;;;;10.38;6.78;;;6.50;99.90;;;6.31;100.00;101260.72;4860000;29;20041;-92
2020/12/19 01:03:59;;;;;;;12.10;7.03;;;6.60;99.90;;;6.33;100.00;101258.69;4871811;29;20045;-92
2020/12/19 01:06:28;;;;;;;;;;;6.50;99.90;;;6.32;100.00;101261.56;4847117;29;20032;-90
2020/12/19 01:08:59;;;;;;;8.07;5.43;;;6.10;99.90;;;6.32;100.00;101272.38;4859156;29;19920;-92
2020/12/19 01:11:27;;;;;;;9.85;6.60;;;6.50;99.90;;;6.34;100.00;101256.81;4858812;29;20033;-92
2020/12/19 01:13:53;;;;;;;8.95;6.43;;;6.60;99.90;;;6.31;100.00;101265.28;4857016;29;20076;-92
2020/12/19 01:16:25;;;;;;;10.65;6.75;;;6.90;99.90;;;6.35;100.00;101266.63;4863667;29;20035;-91
2020/12/19 01:18:53;;;;;;;10.95;7.03;;;6.60;99.90;;;6.36;100.00;101273.72;4860373;29;20040;-91
2020/12/19 01:21:26;;;;;;;14.27;6.72;;;6.50;99.90;;;6.37;100.00;101270.03;4859317;29;20041;-91
2020/12/19 01:23:53;;;;;;;12.18;6.50;;;7.30;99.90;;;6.35;100.00;101267.47;4873395;29;20033;-89
2020/12/19 01:26:19;;;;;;;10.70;7.10;;;6.80;99.90;;;6.37;100.00;101270.03;4858013;29;20040;-92
2020/12/19 01:28:46;;;;;;;10.85;6.55;;;6.50;99.90;;;6.31;100.00;101276.09;4857579;29;20021;-91
2020/12/19 01:31:15;;;;;;;9.52;6.65;;;6.50;99.90;;;6.30;100.00;101263.59;4856979;29;20033;-90
2020/12/19 01:33:41;;;;;;;9.15;6.97;;;6.90;99.90;;;6.26;100.00;101267.59;4856312;29;20025;-90
2020/12/19 01:36:22;;;;;;;13.07;6.72;;;7.00;99.90;;;6.23;100.00;101262.53;4842732;29;20037;-91
2020/12/19 01:38:50;;;;;;;10.35;7.18;;;6.70;99.90;;;6.13;100.00;101263.50;4857323;29;20399;-91
2020/12/19 01:41:16;;;;;;;13.40;7.05;;;6.40;99.90;;;6.16;100.00;101260.47;4837959;29;20037;-91
2020/12/19 01:43:52;;;;;;;9.65;7.20;;;6.30;99.90;;;6.13;100.00;101260.78;4847844;29;20033;-91
2020/12/19 01:46:47;;;;;;;11.57;6.97;;;6.30;99.90;;;6.15;100.00;101261.47;4870905;29;20071;-92
2020/12/19 01:49:14;;;;;;;10.40;7.43;;;6.30;99.90;;;6.10;100.00;101261.09;4849249;29;20045;-91
2020/12/19 01:51:40;;;;;;;10.85;7.65;;;6.30;99.90;;;6.21;100.00;101256.44;4856273;29;20021;-91
2020/12/19 01:54:09;;;;;;;11.35;7.47;;;6.30;99.90;;;6.15;100.00;101247.13;4836983;29;20034;-90
2020/12/19 01:56:44;;;;;;;13.40;7.70;;;6.60;99.90;;;6.12;100.00;101252.84;4837029;29;20071;-91
2020/12/19 01:59:14;;;;;;;10.73;6.97;;;6.20;99.90;;;6.09;100.00;101255.88;4850636;29;20478;-89
2020/12/19 02:01:51;;;;;;;12.23;7.60;;;6.30;99.90;;;6.11;100.00;101249.28;4849225;29;20584;-90
2020/12/19 02:04:18;;;;;;;11.10;7.15;;;6.20;99.90;;;6.06;100.00;101261.59;4854222;29;20402;-90
2020/12/19 02:06:55;;;;;;;15.77;8.70;;;6.20;99.90;;;6.05;100.00;101249.94;4858963;29;20033;-91
2020/12/19 02:09:29;;;;;;;12.13;8.13;;;6.20;99.90;;;5.93;100.00;101245.81;4866591;29;20037;-90
2020/12/19 02:11:56;;;;;;;17.57;7.30;;;6.20;99.90;;;6.00;100.00;101249.56;4854006;29;20033;-91
2020/12/19 02:14:22;;;;;;;10.90;6.80;;;5.90;99.90;;;6.00;100.00;101243.31;4863650;29;20021;-90
2020/12/19 02:16:55;;;;;;;12.65;7.78;;;6.10;99.90;;;5.98;100.00;101243.47;4863699;29;20155;-90
2020/12/19 02:19:22;;;;;;;12.00;7.15;;;6.10;99.90;;;5.97;100.00;101240.97;4850675;29;20044;-90
2020/12/19 02:21:48;;;;;;;10.70;7.15;;;6.60;99.90;;;5.92;100.00;101236.03;4831328;29;20041;-90
2020/12/19 02:24:14;;;;;;;13.40;7.25;;;6.10;99.90;;;6.05;100.00;101236.44;4850466;29;20058;-90
2020/12/19 02:26:44;;;;;;;10.05;7.13;;;6.30;99.90;;;5.99;100.00;101242.47;4820299;29;20493;-89
2020/12/19 02:29:10;;;;;;;9.18;7.15;;;6.10;99.90;;;5.98;100.00;101235.38;4849044;29;20038;-90
2020/12/19 02:31:36;;;;;;;17.10;8.00;;;6.70;99.90;;;5.95;100.00;101237.56;4854661;29;20079;-90
2020/12/19 02:34:01;;;;;;;11.40;7.28;;;6.00;99.90;;;6.02;100.00;101234.03;4836714;29;20029;-89
2020/12/19 02:36:27;;;;;;;11.90;7.57;;;6.10;99.90;;;5.99;100.00;101228.97;4846410;29;20025;-89
2020/12/19 02:38:53;;;;;;;13.32;8.63;;;7.50;99.90;;;6.00;100.00;101222.56;4823260;29;20132;-89
2020/12/19 02:41:19;;;;;;;14.13;7.57;;;6.10;99.90;;;5.96;100.00;101221.19;4839713;29;20030;-91
2020/12/19 02:43:56;;;;;;;9.82;6.53;;;6.10;99.90;;;5.92;100.00;101222.53;4841978;29;20035;-91
2020/12/19 02:46:22;;;;;;;14.65;7.97;;;6.10;99.90;;;5.91;100.00;101218.13;4868767;29;20608;-91
2020/12/19 02:48:49;;;;;;;11.38;7.47;;;6.10;99.90;;;5.92;100.00;101210.88;4850575;29;19920;-90
2020/12/19 02:51:15;;;;;;;11.23;6.97;;;6.10;99.90;;;5.88;100.00;101215.72;4842523;29;20045;-91
2020/12/19 02:53:42;;;;;;;11.98;7.30;;;6.40;99.90;;;5.95;100.00;101206.00;4849569;29;20097;-91
2020/12/19 02:56:08;;;;;;;13.65;7.35;;;6.10;99.90;;;5.95;100.00;101211.41;4846768;29;20039;-91
2020/12/19 02:58:34;;;;;;;12.60;7.82;;;6.90;99.90;;;5.95;100.00;101205.16;4835236;29;20045;-91
2020/12/19 03:01:01;;;;;;;10.77;7.65;;;6.60;99.90;;;6.01;100.00;101199.94;4851648;29;20037;-90
2020/12/19 03:03:27;;;;;;;11.23;7.32;;;6.30;99.90;;;5.96;100.00;101201.44;4849005;29;20064;-89
2020/12/19 03:05:53;;;;;;;12.68;7.93;;;6.20;99.90;;;5.88;100.00;101194.13;4824091;29;20057;-89
2020/12/19 03:08:19;;;;;;;11.77;7.32;;;6.10;99.90;;;5.91;100.00;101193.81;4854468;29;20114;-90
2020/12/19 03:10:45;;;;;;;12.15;6.97;;;6.80;99.90;;;5.94;100.00;101193.50;4852364;29;20038;-90
2020/12/19 03:13:11;;;;;;;13.85;8.02;;;6.00;99.90;;;5.98;100.00;101197.53;4856142;29;20616;-90
2020/12/19 03:15:37;;;;;;;10.20;6.78;;;6.00;99.90;;;5.94;100.00;101188.09;4829467;29;20054;-91
2020/12/19 03:18:03;;;;;;;11.82;8.38;;;6.00;99.90;;;5.90;100.00;101188.56;4852067;29;20393;-90
2020/12/19 03:20:29;;;;;;;13.90;7.97;;;6.00;99.90;;;5.98;100.00;101189.44;4829634;29;20045;-90
2020/12/19 03:22:55;;;;;;;9.73;6.50;;;6.40;99.90;;;6.00;100.00;101183.88;4842440;29;20059;-92
2020/12/19 03:25:20;;;;;;;11.68;6.88;;;6.00;99.90;;;6.00;100.00;101182.03;4856780;29;20037;-90
2020/12/19 03:27:46;;;;;;;12.77;8.45;;;5.90;99.90;;;5.71;100.00;101176.13;4856501;29;20021;-89
2020/12/19 03:30:12;;;;;;;11.43;7.15;;;5.80;99.90;;;5.80;100.00;101172.44;4845364;29;20404;-91
2020/12/19 03:32:38;;;;;;;11.27;8.07;;;6.20;99.90;;;5.74;100.00;101170.41;4860858;29;20069;-91
2020/12/19 03:35:04;;;;;;;9.98;6.72;;;5.80;99.90;;;5.64;100.00;101164.28;4858346;29;20025;-90
2020/12/19 03:37:33;;;;;;;11.50;8.20;;;5.80;99.90;;;5.59;100.00;101166.59;4863005;29;20036;-90
2020/12/19 03:40:00;;;;;;;11.88;7.97;;;5.70;99.90;;;5.69;100.00;101170.88;4877696;29;20022;-89
2020/12/19 03:42:26;;;;;;;12.85;8.23;;;6.10;99.90;;;5.61;100.00;101170.84;4863271;29;20499;-90
2020/12/19 03:44:52;;;;;;;11.45;7.85;;;5.90;99.90;;;5.52;100.00;101165.56;4851148;29;20052;-90
2020/12/19 03:47:18;;;;;;;12.60;8.38;;;5.70;99.90;;;5.59;100.00;101161.19;4854471;29;20029;-90
2020/12/19 03:49:44;;;;;;;13.35;7.85;;;5.70;99.90;;;5.55;100.00;101154.41;4867946;29;20033;-90
2020/12/19 03:52:10;;;;;;;12.85;7.97;;;5.70;99.90;;;5.56;100.00;101153.41;4839134;29;20029;-90
2020/12/19 03:54:36;;;;;;;11.65;7.60;;;5.30;99.90;;;5.59;100.00;101151.25;4866459;29;20029;-90
2020/12/19 03:57:02;;;;;;;12.38;7.97;;;5.70;99.90;;;5.51;100.00;101153.91;4878143;29;20033;-90
2020/12/19 03:59:28;;;;;;;13.13;8.10;;;5.70;99.90;;;5.68;100.00;101150.28;4872611;29;20121;-90
2020/12/19 04:01:54;;;;;;;9.75;7.00;;;6.00;99.90;;;5.53;100.00;101151.06;4869151;29;20088;-91
2020/12/19 04:04:20;;;;;;;15.48;8.02;;;5.70;99.90;;;5.52;100.00;101133.16;4850031;29;20104;-91
2020/12/19 04:06:45;;;;;;;12.35;8.30;;;6.10;99.90;;;5.48;100.00;101138.88;4875595;29;20033;-90
2020/12/19 04:09:11;;;;;;;10.73;7.75;;;5.60;99.90;;;5.47;100.00;101134.47;4844724;29;20033;-91
2020/12/19 04:11:38;;;;;;;10.05;7.55;;;5.60;99.90;;;5.59;100.00;101136.91;4863237;29;20033;-92
2020/12/19 04:14:03;;;;;;;11.95;7.18;;;6.40;99.90;;;5.46;100.00;101130.06;4860500;29;20036;-90
2020/12/19 04:16:29;;;;;;;9.32;6.50;;;5.60;99.90;;;5.56;100.00;101127.25;4845138;29;20037;-89
2020/12/19 04:18:55;;;;;;;12.73;8.20;;;5.70;99.90;;;5.39;100.00;101130.88;4861091;29;20044;-90
2020/12/19 04:21:21;;;;;;;14.70;8.43;;;6.20;99.90;;;5.53;100.00;101124.06;4855949;29;20029;-90
2020/12/19 04:23:47;;;;;;;13.95;7.75;;;5.80;99.90;;;5.49;100.00;101120.81;4840586;29;20041;-90
2020/12/19 04:26:12;;;;;;;9.18;6.45;;;5.60;99.90;;;5.53;100.00;101114.06;4855331;29;20035;-90
2020/12/19 04:28:38;;;;;;;11.82;7.15;;;5.80;99.90;;;5.50;100.00;101117.13;4840188;29;20113;-90
2020/12/19 04:31:04;;;;;;;10.52;7.30;;;5.70;99.90;;;5.56;100.00;101121.00;4839945;29;20043;-90
2020/12/19 04:33:30;;;;;;;9.23;6.22;;;5.40;99.90;;;5.42;100.00;101104.41;4853976;29;20046;-89
2020/12/19 04:35:56;;;;;;;12.27;7.07;;;6.10;99.90;;;5.46;100.00;101113.88;4833783;29;20025;-90
2020/12/19 04:38:25;;;;;;;13.73;8.02;;;5.80;99.90;;;5.50;100.00;101109.00;4835214;29;20038;-90
2020/12/19 04:40:50;;;;;;;10.95;7.95;;;5.80;99.90;;;5.47;100.00;101099.38;4839765;29;20040;-90
2020/12/19 04:43:19;;;;;;;12.32;7.45;;;5.70;99.90;;;5.55;100.00;101095.00;4855401;29;20396;-90
2020/12/19 04:45:48;;;;;;;8.80;6.18;;;5.70;99.90;;;5.55;100.00;101095.00;4855139;29;20033;-86
2020/12/19 04:48:24;;;;;;;12.13;8.10;;;5.90;99.90;;;5.60;100.00;101103.50;4855158;29;20029;-90
2020/12/19 04:50:50;;;;;;;12.15;7.72;;;5.70;99.90;;;5.68;100.00;101095.41;4836649;29;20037;-89
2020/12/19 04:53:21;;;;;;;11.57;7.47;;;5.80;99.90;;;5.70;100.00;101082.59;4834442;29;20040;-90
2020/12/19 04:55:48;;;;;;;13.73;6.68;;;5.80;99.90;;;5.71;100.00;101089.69;4836636;29;20048;-90
2020/12/19 04:58:19;;;;;;;11.93;7.75;;;6.40;99.90;;;5.79;100.00;101084.31;4837756;29;20048;-89
2020/12/19 05:00:47;;;;;;;11.23;6.97;;;6.80;99.90;;;5.93;100.00;101078.31;4836813;29;20125;-90
2020/12/19 05:03:16;;;;;;;13.23;7.80;;;6.00;99.90;;;5.96;100.00;101080.69;4841650;29;20389;-90
2020/12/19 05:05:46;;;;;;;12.77;7.05;;;6.10;99.90;;;6.01;100.00;101074.78;4841753;29;20069;-90
2020/12/19 05:08:12;;;;;;;10.40;7.75;;;6.10;99.90;;;6.10;100.00;101068.38;4834906;29;20028;-89
2020/12/19 05:10:39;;;;;;;11.52;7.20;;;6.60;99.90;;;6.27;100.00;101069.28;4867415;29;20515;-89
2020/12/19 05:13:06;;;;;;;9.15;6.70;;;5.90;99.90;;;6.18;100.00;101069.28;4838093;29;20029;-90
2020/12/19 05:15:32;;;;;;;11.50;7.00;;;6.30;99.90;;;6.18;100.00;101055.75;4844588;29;20033;-89
2020/12/19 05:17:59;;;;;;;9.73;6.80;;;6.40;99.90;;;6.26;100.00;101059.47;4838528;29;20053;-89
2020/12/19 05:20:30;;;;;;;10.98;7.07;;;6.60;99.90;;;6.29;100.00;101051.03;4868558;29;20076;-90
2020/12/19 05:22:57;;;;;;;9.57;6.10;;;6.40;99.90;;;6.32;100.00;101053.41;4839154;29;20040;-90
2020/12/19 05:25:26;;;;;;;8.32;6.00;;;6.70;99.90;;;6.35;100.00;101055.75;4853666;29;20037;-89
2020/12/19 05:27:53;;;;;;;10.25;6.95;;;6.40;99.90;;;6.34;100.00;101054.91;4852503;29;20123;-90
2020/12/19 05:30:21;;;;;;;9.18;6.50;;;7.10;99.90;;;6.51;100.00;101045.81;4853682;29;20033;-90
2020/12/19 05:32:52;;;;;;;10.15;7.03;;;6.50;99.90;;;6.46;100.00;101041.91;4838267;29;20025;-90
2020/12/19 05:35:21;;;;;;;9.27;6.05;;;6.50;99.90;;;6.47;100.00;101047.16;4849880;29;20129;-90
2020/12/19 05:38:03;;;;;;;10.02;6.85;;;6.90;99.90;;;6.54;100.00;101052.75;4835728;29;20033;-90
2020/12/19 05:40:32;;;;;;;8.45;5.88;;;6.70;99.90;;;6.39;100.00;101040.91;4839698;29;20037;-90
2020/12/19 05:42:59;;;;;;;9.65;6.47;;;7.00;99.90;;;6.46;100.00;101037.34;4850528;29;20036;-91
2020/12/19 05:45:27;;;;;;;10.55;6.82;;;6.60;99.90;;;6.44;100.00;101030.41;4853223;29;20043;-91
2020/12/19 05:47:53;;;;;;;9.27;6.25;;;7.30;99.90;;;6.48;100.00;101034.47;4853063;29;20469;-90
2020/12/19 05:50:21;;;;;;;10.23;6.57;;;7.20;99.90;;;6.60;100.00;101027.72;4842315;29;20124;-90
2020/12/19 05:52:47;;;;;;;9.85;5.95;;;6.60;99.90;;;6.61;100.00;101024.00;4839912;29;20038;-90
2020/12/19 05:55:20;;;;;;;9.52;7.00;;;6.60;99.90;;;6.64;100.00;101023.66;4835104;29;20034;-91
2020/12/19 05:57:47;;;;;;;10.57;6.38;;;6.50;99.90;;;6.56;100.00;101021.78;4850618;29;20029;-90
2020/12/19 06:00:19;;;;;;;10.82;6.43;;;6.70;99.90;;;6.60;100.00;101014.19;4853655;29;20037;-89
2020/12/19 06:02:45;;;;;;;8.95;6.57;;;6.90;99.90;;;6.65;100.00;101025.34;4854925;29;20041;-91
2020/12/19 06:05:15;;;;;;;10.05;6.07;;;6.70;99.90;;;6.59;100.00;101026.00;4867160;29;20036;-90
2020/12/19 06:07:44;;;;;;;9.20;6.25;;;6.70;99.90;;;6.53;100.00;101018.59;4852513;29;20044;-90
2020/12/19 06:10:16;;;;;;;8.75;6.00;;;6.70;99.90;;;6.56;100.00;101020.94;4866853;29;20041;-91
2020/12/19 06:13:05;;;;;;;9.80;6.03;;;6.70;99.90;;;6.60;100.00;101016.88;4837601;29;20033;-90
2020/12/19 06:16:12;;;;;;;11.75;6.97;;;6.70;99.90;;;6.63;100.00;101013.84;4858483;29;20039;-90
2020/12/19 06:19:08;;;;;;;10.18;6.75;;;6.70;99.90;;;6.60;100.00;101011.47;4849950;29;20053;-90
2020/12/19 06:21:35;;;;;;;9.85;5.85;;;6.70;99.90;;;6.63;100.00;101000.34;4854363;29;20056;-90
2020/12/19 06:24:01;;;;;;;7.80;5.78;;;6.90;99.90;;;6.62;100.00;100997.78;4838079;29;20600;-92
2020/12/19 06:26:37;;;;;;;9.20;6.13;;;6.80;99.90;;;6.68;100.00;100992.53;4821176;29;20037;-90
2020/12/19 06:29:05;;;;;;;11.07;6.28;;;6.90;99.90;;;6.72;100.00;101009.28;4836725;29;20038;-91
2020/12/19 06:31:31;;;;;;;10.18;5.68;;;6.80;99.90;;;6.72;100.00;100999.28;4808853;29;20029;-91
2020/12/19 06:34:04;;;;;;;9.82;6.70;;;7.40;99.90;;;6.69;100.00;100987.97;4845632;29;20451;-91
2020/12/19 06:36:32;;;;;;;10.15;5.78;;;6.90;99.90;;;6.70;100.00;100995.91;4861689;29;20021;-89
2020/12/19 06:39:18;;;;;;;10.38;6.63;;;6.80;99.90;;;6.60;100.00;100999.81;4856860;29;20033;-89
2020/12/19 06:41:58;;;;;;;9.10;5.97;;;6.80;99.90;;;6.59;100.00;100988.16;4845630;29;20086;-89
2020/12/19 06:44:33;;;;;;;10.35;6.57;;;6.80;99.90;;;6.62;100.00;100992.38;4862751;29;20037;-89
2020/12/19 06:47:18;;;;;;;9.82;6.38;;;6.80;99.90;;;6.69;100.00;100994.22;4865909;29;20666;-88
2020/12/19 06:49:52;;;;;;;9.07;5.22;;;6.80;99.90;;;6.62;100.00;100987.81;4867807;29;20053;-90
2020/12/19 06:52:21;;;;;;;10.13;5.95;;;6.80;99.90;;;6.70;100.00;100989.66;4846909;29;20033;-88
2020/12/19 06:54:49;;;;;;;8.50;5.70;;;6.80;99.90;;;6.63;100.00;100989.50;4850096;29;20053;-89
2020/12/19 06:57:30;;;;;;;12.10;6.50;;;6.90;99.90;;;6.60;100.00;100997.13;4840116;29;20041;-89
2020/12/19 07:00:23;;;;;;;11.65;6.32;;;6.80;99.90;;;6.67;100.00;100990.00;4856311;29;20049;-89
2020/12/19 07:02:57;;;;;;;10.18;6.68;;;6.80;99.90;;;6.65;100.00;100992.91;4845178;29;20041;-89
2020/12/19 07:05:31;;;;;;;8.80;6.00;;;6.80;99.90;;;6.63;100.00;100996.78;4854308;29;20033;-88
2020/12/19 07:08:18;;;;;;;10.30;6.90;;;6.80;99.90;;;6.51;100.00;100986.31;4874324;29;20029;-89
2020/12/19 07:10:44;;;;;;;9.30;6.10;;;6.70;99.90;;;6.62;100.00;100986.97;4851434;29;20064;-89
2020/12/19 07:13:11;;;;;;;9.40;5.90;;;7.00;99.90;;;6.51;100.00;100982.75;4852237;29;20046;-89
2020/12/19 07:15:48;;;;;;;9.23;6.20;;;6.70;99.90;;;6.50;100.00;100975.66;4861986;29;20041;-89
2020/12/19 07:18:27;;;;;;;11.05;6.65;;;6.70;99.90;;;6.50;100.00;100984.63;4857322;29;20472;-88
2020/12/19 07:21:10;;;;;;;9.60;6.85;;;7.70;99.90;;;6.52;100.00;100987.16;4871636;29;20036;-90
2020/12/19 07:23:38;;;;;;;9.85;7.20;;;6.70;99.90;;;6.50;100.00;100983.78;4861032;29;20037;-88
2020/12/19 07:26:06;;;;;;;12.05;6.38;;;6.70;99.90;;;6.55;100.00;100986.78;4859872;29;20025;-91
2020/12/19 07:28:33;;;;;;;9.13;6.75;;;6.70;99.90;;;6.56;100.00;100983.94;4853491;29;20037;-90
2020/12/19 07:31:00;;;;;;;10.38;6.25;;;6.70;99.90;;;6.54;100.00;100990.53;4854198;29;20120;-90
2020/12/19 07:33:26;;;;;;;14.90;7.00;;;6.70;99.90;;;6.63;100.00;100994.06;4833292;29;20033;-87
2020/12/19 07:35:54;;;;;;;10.93;6.65;;;6.70;99.90;;;6.71;100.00;100997.59;4838574;29;20034;-91
2020/12/19 07:38:21;;;;;;;11.05;7.00;;;6.80;99.90;;;6.71;100.00;100992.19;4856026;29;20044;-89
2020/12/19 07:40:54;;;;;;;10.38;6.18;;;6.80;99.90;;;6.81;100.00;101011.78;4851604;29;20126;-90
2020/12/19 07:43:22;;;;;;;11.57;6.25;;;6.90;99.90;;;6.81;100.00;101005.53;4868219;29;20061;-89
2020/12/19 07:45:55;;;;;;;9.13;6.45;;;6.90;99.90;;;6.87;100.00;101000.28;4839977;29;20041;-90
2020/12/19 07:48:21;;;;;;;12.68;7.25;;;6.90;99.90;;;6.87;100.00;100994.88;4846272;29;20037;-88
2020/12/19 07:50:47;;;;;;;12.57;7.07;;;7.30;99.90;;;6.89;100.00;100989.28;4840374;29;20033;-88
2020/12/19 07:53:23;;;;;;;10.23;6.65;;;7.00;99.90;;;6.90;100.00;100980.13;4830172;29;20120;-93
2020/12/19 07:55:51;;;;;;;10.95;7.38;;;7.10;99.90;;;6.85;100.00;100993.34;4847710;29;20040;-93
2020/12/19 07:58:21;;;;;;;9.25;6.65;;;7.10;99.90;;;6.98;100.00;100982.00;4881839;29;20056;-92
2020/12/19 08:00:47;;;;;;;10.10;7.55;;;7.10;99.90;;;6.98;100.00;100992.81;4867955;29;20044;-93
2020/12/19 08:03:15;;;;;;;12.02;7.53;;;7.20;99.90;;;6.98;100.00;100988.25;4851082;29;20064;-93
2020/12/19 08:05:40;;;;;;;10.98;6.93;;;7.10;99.90;;;7.08;100.00;100978.06;4852807;29;20029;-94
2020/12/19 08:08:06;;;;;;;10.48;7.20;;;7.20;99.90;;;7.15;100.00;100983.63;4845352;29;20043;-93
2020/12/19 08:10:33;;;;;;;9.27;6.22;;;7.20;99.90;;;7.25;100.00;100973.41;4850549;29;20033;-94
2020/12/19 08:13:00;;;;;;;14.20;8.25;;;7.20;99.90;;;7.24;100.00;100977.16;4863583;29;20033;-94
2020/12/19 08:15:29;;;;;;;9.45;6.78;;;7.30;99.90;;;7.23;100.00;100975.47;4878404;29;20027;-93
2020/12/19 08:18:02;;;;;;;10.57;7.20;;;7.40;99.90;;;7.22;100.00;100971.09;4864782;29;20044;-92
2020/12/19 08:20:36;;;;;;;13.70;6.78;;;7.30;99.90;;;7.30;100.00;100976.47;4878423;29;20060;-94
2020/12/19 08:23:09;;;;;;;11.85;8.05;;;7.40;99.90;;;7.25;100.00;100978.84;4864687;29;20036;-93
2020/12/19 08:25:37;;;;;;;10.73;6.75;;;7.40;99.90;;;7.33;100.00;100986.94;4848880;29;20086;-92
2020/12/19 08:28:05;;;;;;;11.55;7.07;;;7.50;99.90;;;7.41;100.00;100988.75;4850554;29;20017;-93
2020/12/19 08:30:33;;;;;;;14.07;7.63;;;7.40;99.90;;;7.35;100.00;100982.19;4847275;29;20052;-92
2020/12/19 08:33:04;;;;;;;11.35;7.22;;;7.60;99.90;;;7.36;100.00;100964.91;4863111;29;20052;-93
2020/12/19 08:35:43;;;;;;;10.50;6.72;;;8.10;99.90;;;7.50;100.00;100969.59;4859373;29;20465;-92
2020/12/19 08:38:24;;;;;;;11.02;7.63;;;7.60;99.90;;;7.55;100.00;100975.31;4855286;29;20142;-93
2020/12/19 08:40:52;;;;;;;9.48;6.82;;;7.70;99.90;;;7.71;100.00;100968.09;4867019;29;20052;-90
2020/12/19 08:43:19;;;;;;;10.85;7.28;;;8.20;99.90;;;7.79;100.00;100965.38;4849628;29;20034;-94
2020/12/19 08:45:47;;;;;;;10.65;6.90;;;7.90;99.90;;;7.85;99.94;100967.34;4834130;29;20037;-93
2020/12/19 09:02:17;;;;;;;11.07;7.05;;;8.40;99.90;;;8.50;97.12;100953.28;4901396;29;20088;-94
2020/12/19 09:07:19;;;;;;;11.95;7.20;;;8.60;99.90;;;8.68;96.42;100957.34;4987438;23;20060;-93
2020/12/19 09:09:49;;;;;;;10.77;7.43;;;8.70;99.90;;;8.74;96.59;100962.03;4868700;29;20056;-91
2020/12/19 09:12:18;;;;;;;10.18;5.82;;;8.80;99.90;;;8.85;95.94;100958.00;4852992;29;20160;-93
2020/12/19 09:14:43;;;;;;;8.52;5.50;;;8.90;99.90;;;8.86;96.07;100959.69;4871345;29;20021;-90
2020/12/19 09:17:10;;;;;;;12.15;7.43;;;9.10;99.90;;;8.84;95.71;100961.75;4878136;29;20032;-91
2020/12/19 09:19:41;;;;;;;11.00;7.75;;;9.30;99.90;;;8.84;95.94;100967.19;4883441;29;20119;-90
2020/12/19 09:22:08;;;;;;;10.25;7.03;;;9.00;99.90;;;8.92;95.84;100985.25;4903363;29;20491;-92
2020/12/19 09:24:40;;;;;;;9.60;6.70;;;9.00;99.90;;;8.72;96.39;100968.66;4890263;29;20043;-90
2020/12/19 09:27:39;;;;;;;9.57;6.25;;;9.00;99.90;;;8.94;95.95;100967.75;4875831;29;20041;-95
2020/12/19 09:30:29;;;;;;;10.82;6.65;;;8.90;99.90;;;8.96;95.94;100968.41;4890294;29;20028;-94
2020/12/19 09:32:58;;;;;;;10.23;6.22;;;9.10;99.90;;;8.91;95.36;100973.56;4820976;29;20045;-94
2020/12/19 10:23:11;;;;;;;9.00;5.55;;;9.40;99.90;;;9.30;95.60;100950.69;4877024;29;20049;-94
2020/12/19 10:25:45;;;;;;;10.23;6.30;;;9.50;99.90;;;9.50;94.70;100946.34;4844049;29;20428;-92
2020/12/19 10:28:18;;;;;;;;;;;9.50;99.90;;;9.42;95.09;100950.00;4846617;29;20042;-92
2020/12/19 10:30:45;;;;;;;8.63;5.78;;;9.60;99.90;;;9.61;94.26;100940.41;4817309;29;19946;-93
2020/12/19 10:33:11;;;;;;;10.88;6.32;;;9.60;99.90;;;9.64;94.15;100928.31;4826720;29;20041;-90
2020/12/19 10:35:53;;;;;;;9.93;6.75;;;9.70;99.90;;;9.64;94.39;100926.44;4834308;29;20074;-93
2020/12/19 10:38:20;;;;;;;9.02;5.82;;;9.70;99.90;;;9.95;93.56;100911.69;4846428;29;20045;-89
2020/12/19 10:40:50;;;;;;;8.73;5.97;;;9.90;99.90;;;10.10;93.02;100915.19;4813172;29;20045;-90
2020/12/19 10:43:18;;;;;;;10.05;5.97;;;10.00;99.90;;;10.27;92.62;100904.91;4825062;29;20034;-90
2020/12/19 10:45:51;;;;;;;8.73;5.75;;;10.20;99.90;;;10.67;90.59;100906.03;4826940;29;20026;-90
2020/12/19 10:48:20;;;;;;;8.80;5.35;;;10.40;99.90;;;10.82;89.92;100909.50;4836550;29;20042;-91
2020/12/19 10:51:33;;;;;;;10.00;6.43;;;10.70;99.90;;;11.10;88.53;100912.97;4842432;29;20062;-88
2020/12/19 10:54:05;;;;;;;6.43;4.90;;;10.80;99.90;;;11.29;88.15;100925.84;4843857;29;20101;-89
2020/12/19 10:56:31;;;;;;;9.90;5.28;;;11.10;99.90;;;11.40;87.46;100926.34;4820794;29;20038;-90
2020/12/19 10:58:58;;;;;;;8.40;5.18;;;11.20;99.90;;;11.24;87.17;100928.34;4812682;29;20073;-89
2020/12/19 11:05:06;;;;;;;7.28;5.15;;;11.40;99.90;;;11.33;87.09;100933.63;4847868;29;20433;-92
2020/12/19 11:07:32;;;;;;;6.78;5.53;;;11.40;99.90;;;11.27;87.56;100933.41;4823853;29;20038;-89
2020/12/19 11:10:14;;;;;;;7.68;4.85;;;11.40;99.90;;;11.39;87.14;100935.56;4830645;29;20034;-90
2020/12/19 11:12:47;;;;;;;8.68;4.97;;;11.50;99.90;;;11.47;87.02;100940.81;4834881;29;20109;-92
2020/12/19 11:18:57;;;;;;;6.55;4.43;;;11.50;99.90;;;11.31;87.31;100913.91;4864564;29;20036;-90
2020/12/19 11:21:43;;;;;;;8.02;4.82;;;11.40;99.90;;;11.18;88.31;100915.53;4839847;29;20062;-92
2020/12/19 11:24:17;;;;;;;6.97;4.35;;;11.30;99.90;;;11.23;88.06;100915.78;4834497;29;20042;-91
2020/12/19 11:26:53;;;;;;;9.25;4.45;;;11.30;99.90;;;11.19;88.18;100910.91;4827836;29;20118;-91
2020/12/19 11:29:23;;;;;;;7.38;4.13;;;11.30;99.90;;;10.94;88.27;100912.50;4860437;29;20044;-91
2020/12/19 11:36:42;;;;;;;;;;;;;;;;;;;;;
2020/12/19 11:39:49;;;;;;;7.47;4.35;;;11.00;99.90;;;10.92;89.58;100901.78;4784247;30;20075;-93
2020/12/19 11:42:47;;;;;;;5.93;3.88;;;11.00;99.90;;;11.05;88.35;100901.03;4777121;29;20051;-93
2020/12/19 11:46:31;;;;;;;;;;;;;;;;;;;;;
2020/12/19 11:56:51;;;;;;;8.30;4.03;;;11.20;99.90;;;11.12;88.13;100913.63;5097125;23;20053;-94